createdAt,value
2016-12-02T00:00:00.598Z,0
2016-12-02T00:00:41.078Z,0
2016-12-02T00:01:21.599Z,0
2016-12-02T00:02:02.090Z,0
2016-12-02T00:02:42.529Z,0
2016-12-02T00:03:23.004Z,0
2016-12-02T00:04:03.508Z,0
2016-12-02T00:04:44.019Z,0
2016-12-02T00:05:24.511Z,0
2016-12-02T00:06:04.981Z,0
2016-12-02T00:06:45.456Z,0
2016-12-02T00:07:25.944Z,0
2016-12-02T00:08:06.425Z,0
2016-12-02T00:08:46.932Z,0
2016-12-02T00:09:27.431Z,0
2016-12-02T00:10:07.943Z,0
2016-12-02T00:10:48.433Z,0
2016-12-02T00:11:28.915Z,0
2016-12-02T00:12:09.419Z,0
2016-12-02T00:12:49.908Z,0
2016-12-02T00:13:30.406Z,0
2016-12-02T00:14:10.907Z,0
2016-12-02T00:14:51.418Z,0
2016-12-02T00:15:31.869Z,0
2016-12-02T00:16:12.377Z,0
2016-12-02T00:16:52.896Z,0
2016-12-02T00:17:33.374Z,0
2016-12-02T00:18:13.837Z,0
2016-12-02T00:18:54.333Z,0
2016-12-02T00:19:34.853Z,0
2016-12-02T00:20:15.322Z,0
2016-12-02T00:20:55.806Z,0
2016-12-02T00:21:36.303Z,0
2016-12-02T00:22:16.820Z,0
2016-12-02T00:22:57.304Z,0
2016-12-02T00:23:37.785Z,0
2016-12-02T00:24:18.314Z,0
2016-12-02T00:24:58.907Z,0
2016-12-02T00:25:39.353Z,0
2016-12-02T00:26:19.856Z,0
2016-12-02T00:27:00.314Z,0
2016-12-02T00:27:40.831Z,0
2016-12-02T00:28:21.328Z,0
2016-12-02T00:29:01.785Z,0
2016-12-02T00:29:42.280Z,0
2016-12-02T00:30:22.718Z,0
2016-12-02T00:31:03.238Z,0
2016-12-02T00:31:43.735Z,0
2016-12-02T00:32:24.256Z,0
2016-12-02T00:33:04.764Z,0
2016-12-02T00:33:45.228Z,0
2016-12-02T00:34:25.705Z,0
2016-12-02T00:35:06.183Z,0
2016-12-02T00:35:46.691Z,0
2016-12-02T00:36:27.187Z,0
2016-12-02T00:37:07.684Z,0
2016-12-02T00:37:48.162Z,0
2016-12-02T00:38:28.664Z,0
2016-12-02T00:39:09.174Z,0
2016-12-02T00:39:49.706Z,0
2016-12-02T00:40:30.181Z,0
2016-12-02T00:41:10.677Z,0
2016-12-02T00:41:51.139Z,0
2016-12-02T00:42:31.662Z,0
2016-12-02T00:43:12.150Z,0
2016-12-02T00:43:52.626Z,0
2016-12-02T00:44:33.120Z,0
2016-12-02T00:45:13.638Z,0
2016-12-02T00:45:54.130Z,0
2016-12-02T00:46:34.593Z,0
2016-12-02T00:47:15.096Z,0
2016-12-02T00:47:55.614Z,0
2016-12-02T00:48:36.063Z,0
2016-12-02T00:49:16.559Z,0
2016-12-02T00:49:57.056Z,0
2016-12-02T00:50:37.519Z,0
2016-12-02T00:51:18.015Z,0
2016-12-02T00:51:58.519Z,0
2016-12-02T00:52:38.970Z,0
2016-12-02T00:53:19.477Z,0
2016-12-02T00:53:59.972Z,0
2016-12-02T00:54:40.453Z,0
2016-12-02T00:55:20.938Z,0
2016-12-02T00:56:01.452Z,0
2016-12-02T00:56:41.951Z,0
2016-12-02T00:57:22.448Z,0
2016-12-02T00:58:02.950Z,0
2016-12-02T00:58:43.452Z,0
2016-12-02T00:59:23.981Z,0
2016-12-02T01:00:04.484Z,0
2016-12-02T01:00:44.944Z,0
2016-12-02T01:01:25.439Z,0
2016-12-02T01:02:05.899Z,0
2016-12-02T01:02:46.385Z,0
2016-12-02T01:03:26.897Z,0
2016-12-02T01:04:07.356Z,0
2016-12-02T01:04:47.881Z,0
2016-12-02T01:05:28.365Z,0
2016-12-02T01:06:08.883Z,0
2016-12-02T01:06:49.379Z,0
2016-12-02T01:07:29.846Z,0
2016-12-02T01:08:10.358Z,0
2016-12-02T01:08:50.875Z,0
2016-12-02T01:09:31.370Z,0
2016-12-02T01:10:11.853Z,0
2016-12-02T01:10:52.373Z,0
2016-12-02T01:11:32.890Z,0
2016-12-02T01:12:13.335Z,0
2016-12-02T01:12:53.839Z,0
2016-12-02T01:13:34.304Z,0
2016-12-02T01:14:14.846Z,0
2016-12-02T01:14:55.292Z,0
2016-12-02T01:15:35.771Z,0
2016-12-02T01:16:16.268Z,0
2016-12-02T01:16:56.742Z,0
2016-12-02T01:17:37.227Z,0
2016-12-02T01:18:17.744Z,0
2016-12-02T01:18:58.264Z,0
2016-12-02T01:19:38.772Z,0
2016-12-02T01:20:19.270Z,0
2016-12-02T01:20:59.787Z,0
2016-12-02T01:21:40.244Z,0
2016-12-02T01:22:20.749Z,0
2016-12-02T01:23:01.213Z,0
2016-12-02T01:23:41.717Z,0
2016-12-02T01:24:22.234Z,0
2016-12-02T01:25:02.716Z,0
2016-12-02T01:25:43.194Z,0
2016-12-02T01:26:23.692Z,0
2016-12-02T01:27:04.174Z,0
2016-12-02T01:27:44.673Z,0
2016-12-02T01:28:25.164Z,0
2016-12-02T01:29:05.659Z,0
2016-12-02T01:29:46.130Z,0
2016-12-02T01:30:26.661Z,0
2016-12-02T01:31:07.185Z,0
2016-12-02T01:31:47.648Z,0
2016-12-02T01:32:28.121Z,0
2016-12-02T01:33:08.639Z,0
2016-12-02T01:33:49.115Z,0
2016-12-02T01:34:29.627Z,0
2016-12-02T01:35:10.135Z,0
2016-12-02T01:35:50.613Z,0
2016-12-02T01:36:31.105Z,0
2016-12-02T01:39:57.269Z,0
2016-12-02T01:40:40.029Z,0
2016-12-02T01:41:20.343Z,0
2016-12-02T01:42:00.853Z,0
2016-12-02T01:42:41.312Z,0
2016-12-02T01:43:21.795Z,0
2016-12-02T01:44:02.278Z,0
2016-12-02T01:44:42.746Z,0
2016-12-02T01:45:23.250Z,0
2016-12-02T01:46:03.717Z,0
2016-12-02T01:46:44.177Z,0
2016-12-02T01:47:24.672Z,0
2016-12-02T01:48:05.165Z,0
2016-12-02T01:48:45.696Z,0
2016-12-02T01:49:26.153Z,0
2016-12-02T01:50:06.639Z,0
2016-12-02T01:50:47.144Z,0
2016-12-02T01:51:27.601Z,0
2016-12-02T01:52:08.088Z,0
2016-12-02T01:52:48.562Z,0
2016-12-02T01:53:29.044Z,0
2016-12-02T01:54:09.540Z,0
2016-12-02T01:54:50.033Z,0
2016-12-02T01:55:30.515Z,0
2016-12-02T01:56:11.023Z,0
2016-12-02T01:56:51.489Z,0
2016-12-02T01:57:31.973Z,0
2016-12-02T01:58:12.414Z,0
2016-12-02T01:58:52.905Z,0
2016-12-02T01:59:33.411Z,0
2016-12-02T02:00:13.938Z,0
2016-12-02T02:00:54.421Z,0
2016-12-02T02:01:34.898Z,0
2016-12-02T02:02:15.366Z,0
2016-12-02T02:02:55.858Z,0
2016-12-02T02:03:36.326Z,0
2016-12-02T02:04:16.885Z,0
2016-12-02T02:04:57.406Z,0
2016-12-02T02:05:37.905Z,0
2016-12-02T02:06:18.376Z,0
2016-12-02T02:06:58.909Z,0
2016-12-02T02:07:39.437Z,0
2016-12-02T02:08:19.879Z,0
2016-12-02T02:09:00.359Z,0
2016-12-02T02:09:40.874Z,0
2016-12-02T02:10:21.375Z,0
2016-12-02T02:11:01.874Z,0
2016-12-02T02:11:42.360Z,0
2016-12-02T02:12:22.831Z,0
2016-12-02T02:13:03.266Z,0
2016-12-02T02:13:43.729Z,0
2016-12-02T02:14:24.247Z,0
2016-12-02T02:15:04.698Z,0
2016-12-02T02:15:45.179Z,0
2016-12-02T02:16:25.682Z,0
2016-12-02T02:17:06.231Z,0
2016-12-02T02:17:46.657Z,0
2016-12-02T02:18:27.180Z,0
2016-12-02T02:19:07.701Z,0
2016-12-02T02:19:48.204Z,0
2016-12-02T02:20:28.723Z,0
2016-12-02T02:21:09.233Z,0
2016-12-02T02:21:49.718Z,0
2016-12-02T02:22:30.248Z,0
2016-12-02T02:23:10.735Z,0
2016-12-02T02:23:51.828Z,0
2016-12-02T02:24:32.296Z,0
2016-12-02T02:25:12.792Z,0
2016-12-02T02:25:53.342Z,0
2016-12-02T02:26:33.781Z,0
2016-12-02T02:27:14.261Z,0
2016-12-02T02:27:54.738Z,0
2016-12-02T02:28:35.221Z,0
2016-12-02T02:29:15.779Z,0
2016-12-02T02:29:56.209Z,0
2016-12-02T02:30:36.725Z,0
2016-12-02T02:31:17.203Z,0
2016-12-02T02:31:57.677Z,0
2016-12-02T02:32:38.153Z,0
2016-12-02T02:33:18.637Z,0
2016-12-02T02:33:59.129Z,0
2016-12-02T02:34:39.579Z,0
2016-12-02T02:35:20.076Z,0
2016-12-02T02:36:00.577Z,0
2016-12-02T02:36:41.082Z,0
2016-12-02T02:37:21.550Z,0
2016-12-02T02:38:02.021Z,0
2016-12-02T02:38:42.544Z,0
2016-12-02T02:39:22.990Z,0
2016-12-02T02:40:03.492Z,0
2016-12-02T02:40:43.971Z,0
2016-12-02T02:41:24.505Z,0
2016-12-02T02:42:04.971Z,0
2016-12-02T02:42:45.410Z,0
2016-12-02T02:43:25.907Z,0
2016-12-02T02:44:06.388Z,0
2016-12-02T02:44:46.909Z,0
2016-12-02T02:45:27.397Z,0
2016-12-02T02:46:07.898Z,0
2016-12-02T02:46:48.392Z,0
2016-12-02T02:47:28.875Z,0
2016-12-02T02:48:09.323Z,0
2016-12-02T02:48:49.819Z,0
2016-12-02T02:49:30.321Z,0
2016-12-02T02:50:10.796Z,0
2016-12-02T02:50:51.267Z,0
2016-12-02T02:51:31.798Z,0
2016-12-02T02:52:12.294Z,0
2016-12-02T02:52:52.779Z,0
2016-12-02T02:53:33.257Z,0
2016-12-02T02:54:13.729Z,0
2016-12-02T02:54:54.223Z,0
2016-12-02T02:55:34.714Z,0
2016-12-02T02:56:15.237Z,0
2016-12-02T02:56:55.713Z,0
2016-12-02T02:57:36.186Z,0
2016-12-02T02:58:16.707Z,0
2016-12-02T02:58:57.166Z,0
2016-12-02T02:59:37.667Z,0
2016-12-02T03:00:18.185Z,0
2016-12-02T03:00:58.681Z,0
2016-12-02T03:01:39.163Z,0
2016-12-02T03:02:19.680Z,0
2016-12-02T03:03:00.165Z,0
2016-12-02T03:03:40.672Z,0
2016-12-02T03:04:21.136Z,0
2016-12-02T03:05:01.653Z,0
2016-12-02T03:05:42.117Z,0
2016-12-02T03:06:22.579Z,0
2016-12-02T03:07:03.079Z,0
2016-12-02T03:07:43.583Z,0
2016-12-02T03:08:24.074Z,0
2016-12-02T03:09:04.551Z,0
2016-12-02T03:09:44.999Z,0
2016-12-02T03:10:25.516Z,0
2016-12-02T03:11:05.987Z,0
2016-12-02T03:11:46.479Z,0
2016-12-02T03:12:26.977Z,0
2016-12-02T03:13:07.460Z,0
2016-12-02T03:13:47.941Z,0
2016-12-02T03:14:28.500Z,0
2016-12-02T03:15:08.943Z,0
2016-12-02T03:15:49.415Z,0
2016-12-02T03:16:29.819Z,0
2016-12-02T03:17:10.315Z,0
2016-12-02T03:17:50.811Z,0
2016-12-02T03:18:31.268Z,0
2016-12-02T03:19:11.804Z,0
2016-12-02T03:19:52.303Z,0
2016-12-02T03:20:32.791Z,0
2016-12-02T03:21:13.261Z,0
2016-12-02T03:21:53.751Z,0
2016-12-02T03:22:34.219Z,0
2016-12-02T03:23:14.701Z,0
2016-12-02T03:23:55.205Z,0
2016-12-02T03:24:35.690Z,0
2016-12-02T03:25:16.189Z,0
2016-12-02T03:25:56.648Z,0
2016-12-02T03:26:37.143Z,0
2016-12-02T03:27:17.650Z,0
2016-12-02T03:27:58.111Z,0
2016-12-02T03:28:38.579Z,0
2016-12-02T03:29:19.047Z,0
2016-12-02T03:29:59.537Z,0
2016-12-02T03:30:40.055Z,0
2016-12-02T03:31:20.566Z,0
2016-12-02T03:32:01.048Z,0
2016-12-02T03:32:41.546Z,0
2016-12-02T03:33:22.012Z,0
2016-12-02T03:35:24.691Z,0
2016-12-02T03:36:07.145Z,0
2016-12-02T03:39:49.167Z,0
2016-12-02T03:40:33.800Z,0
2016-12-02T03:41:14.258Z,0
2016-12-02T03:41:54.779Z,0
2016-12-02T03:42:35.296Z,0
2016-12-02T03:43:15.726Z,0
2016-12-02T03:43:56.210Z,0
2016-12-02T03:44:36.690Z,0
2016-12-02T03:45:17.190Z,0
2016-12-02T03:45:57.682Z,0
2016-12-02T03:46:38.187Z,0
2016-12-02T03:47:18.671Z,0
2016-12-02T03:47:59.209Z,0
2016-12-02T03:48:39.684Z,0
2016-12-02T03:49:20.253Z,0
2016-12-02T03:50:00.748Z,0
2016-12-02T03:50:41.311Z,0
2016-12-02T03:51:21.803Z,0
2016-12-02T03:52:02.258Z,0
2016-12-02T03:52:43.355Z,0
2016-12-02T03:53:23.814Z,0
2016-12-02T03:54:04.286Z,0
2016-12-02T03:54:44.763Z,0
2016-12-02T03:55:25.284Z,0
2016-12-02T03:56:05.787Z,0
2016-12-02T03:56:46.299Z,0
2016-12-02T03:57:26.842Z,0
2016-12-02T03:58:07.353Z,0
2016-12-02T03:58:47.809Z,0
2016-12-02T03:59:28.236Z,0
2016-12-02T04:00:08.745Z,0
2016-12-02T04:00:49.204Z,0
2016-12-02T04:01:29.707Z,0
2016-12-02T04:02:10.168Z,0
2016-12-02T04:02:50.655Z,0
2016-12-02T04:03:31.160Z,0
2016-12-02T04:04:11.654Z,0
2016-12-02T04:04:52.121Z,0
2016-12-02T04:05:32.584Z,0
2016-12-02T04:08:16.421Z,0
2016-12-02T04:09:04.290Z,0
2016-12-02T04:11:25.473Z,0
2016-12-02T04:12:08.864Z,0
2016-12-02T04:12:50.718Z,0
2016-12-02T04:13:31.212Z,0
2016-12-02T04:14:11.690Z,0
2016-12-02T04:14:52.185Z,0
2016-12-02T04:15:32.660Z,0
2016-12-02T04:16:13.190Z,0
2016-12-02T04:16:53.640Z,0
2016-12-02T04:17:34.118Z,0
2016-12-02T04:18:14.606Z,0
2016-12-02T04:18:55.111Z,0
2016-12-02T04:19:35.546Z,0
2016-12-02T04:20:16.047Z,0
2016-12-02T04:20:56.618Z,0
2016-12-02T04:21:36.993Z,0
2016-12-02T04:22:17.457Z,0
2016-12-02T04:22:57.929Z,0
2016-12-02T04:23:38.401Z,0
2016-12-02T04:24:18.854Z,0
2016-12-02T04:24:59.342Z,0
2016-12-02T04:25:39.821Z,0
2016-12-02T04:26:20.298Z,0
2016-12-02T04:27:00.795Z,0
2016-12-02T04:27:41.275Z,0
2016-12-02T04:28:21.759Z,0
2016-12-02T04:29:02.237Z,0
2016-12-02T04:29:42.713Z,0
2016-12-02T04:30:23.223Z,0
2016-12-02T04:31:03.669Z,0
2016-12-02T04:31:44.121Z,0
2016-12-02T04:32:24.617Z,0
2016-12-02T04:33:05.128Z,0
2016-12-02T04:33:45.577Z,0
2016-12-02T04:34:26.047Z,0
2016-12-02T04:35:06.530Z,0
2016-12-02T04:35:47.048Z,0
2016-12-02T04:36:27.592Z,0
2016-12-02T04:37:08.037Z,0
2016-12-02T04:37:48.519Z,0
2016-12-02T04:38:29.007Z,0
2016-12-02T04:39:09.468Z,0
2016-12-02T04:39:49.954Z,0
2016-12-02T04:40:30.468Z,0
2016-12-02T04:41:10.984Z,0
2016-12-02T04:41:51.475Z,0
2016-12-02T04:42:32.043Z,0
2016-12-02T04:43:12.528Z,0
2016-12-02T04:43:53.024Z,0
2016-12-02T04:44:33.519Z,0
2016-12-02T04:45:14.040Z,0
2016-12-02T04:45:54.521Z,0
2016-12-02T04:46:35.020Z,0
2016-12-02T04:47:15.485Z,0
2016-12-02T04:47:55.968Z,0
2016-12-02T04:48:36.467Z,0
2016-12-02T04:49:16.994Z,0
2016-12-02T04:49:57.475Z,0
2016-12-02T04:50:37.945Z,0
2016-12-02T04:51:18.462Z,0
2016-12-02T04:51:58.909Z,0
2016-12-02T04:52:39.393Z,0
2016-12-02T04:53:19.893Z,0
2016-12-02T04:54:00.401Z,0
2016-12-02T04:54:40.853Z,0
2016-12-02T04:55:21.324Z,0
2016-12-02T04:56:01.812Z,0
2016-12-02T04:58:22.057Z,0
2016-12-02T05:02:30.529Z,0
2016-12-02T05:04:55.938Z,0
2016-12-02T05:05:40.766Z,0
2016-12-02T05:06:21.468Z,0
2016-12-02T05:07:01.990Z,0
2016-12-02T05:07:42.453Z,0
2016-12-02T05:08:22.918Z,0
2016-12-02T05:09:03.434Z,0
2016-12-02T05:09:43.900Z,0
2016-12-02T05:10:24.421Z,0
2016-12-02T05:11:04.899Z,0
2016-12-02T05:11:45.384Z,0
2016-12-02T05:12:25.853Z,0
2016-12-02T05:13:06.352Z,0
2016-12-02T05:13:46.822Z,0
2016-12-02T05:14:27.311Z,0
2016-12-02T05:15:07.805Z,0
2016-12-02T05:15:48.311Z,0
2016-12-02T05:16:28.929Z,0
2016-12-02T05:17:09.382Z,0
2016-12-02T05:17:49.916Z,0
2016-12-02T05:18:30.375Z,0
2016-12-02T05:19:10.849Z,0
2016-12-02T05:19:51.363Z,0
2016-12-02T05:20:31.853Z,0
2016-12-02T05:21:12.305Z,0
2016-12-02T05:21:52.857Z,0
2016-12-02T05:22:33.364Z,0
2016-12-02T05:23:13.828Z,0
2016-12-02T05:23:54.364Z,0
2016-12-02T05:24:34.802Z,0
2016-12-02T05:25:15.279Z,0
2016-12-02T05:25:55.762Z,0
2016-12-02T05:26:36.311Z,0
2016-12-02T05:27:16.813Z,0
2016-12-02T05:27:57.293Z,0
2016-12-02T05:28:37.782Z,0
2016-12-02T05:29:18.253Z,0
2016-12-02T05:29:58.728Z,0
2016-12-02T05:30:39.222Z,0
2016-12-02T05:31:19.723Z,0
2016-12-02T05:32:00.197Z,0
2016-12-02T05:32:40.680Z,0
2016-12-02T05:33:21.160Z,0
2016-12-02T05:34:01.653Z,0
2016-12-02T05:34:42.157Z,0
2016-12-02T05:35:22.665Z,0
2016-12-02T05:36:03.174Z,0
2016-12-02T05:36:43.643Z,0
2016-12-02T05:37:24.888Z,0
2016-12-02T05:38:05.369Z,0
2016-12-02T05:38:45.834Z,0
2016-12-02T05:39:26.359Z,0
2016-12-02T05:40:06.815Z,0
2016-12-02T05:40:47.300Z,0
2016-12-02T05:41:27.778Z,0
2016-12-02T05:42:08.301Z,0
2016-12-02T05:42:48.756Z,0
2016-12-02T05:43:29.274Z,0
2016-12-02T05:44:09.769Z,0
2016-12-02T05:44:50.224Z,0
2016-12-02T05:45:30.705Z,0
2016-12-02T05:46:11.186Z,0
2016-12-02T05:46:51.658Z,0
2016-12-02T05:47:32.167Z,0
2016-12-02T05:48:12.640Z,0
2016-12-02T05:48:53.094Z,0
2016-12-02T05:49:33.600Z,0
2016-12-02T05:50:14.154Z,0
2016-12-02T05:50:54.622Z,0
2016-12-02T05:51:35.101Z,0
2016-12-02T05:52:15.638Z,0
2016-12-02T05:52:56.099Z,0
2016-12-02T05:53:36.561Z,0
2016-12-02T05:54:17.132Z,0
2016-12-02T05:54:57.587Z,0
2016-12-02T05:55:38.068Z,0
2016-12-02T05:56:18.562Z,0
2016-12-02T05:56:59.042Z,0
2016-12-02T05:57:39.483Z,0
2016-12-02T05:58:19.983Z,0
2016-12-02T05:59:00.462Z,0
2016-12-02T05:59:40.959Z,0
2016-12-02T06:00:21.415Z,0
2016-12-02T06:01:01.903Z,0
2016-12-02T06:01:42.382Z,0
2016-12-02T06:02:22.874Z,0
2016-12-02T06:03:03.343Z,0
2016-12-02T06:03:43.827Z,0
2016-12-02T06:04:24.308Z,0
2016-12-02T06:05:04.752Z,0
2016-12-02T06:05:45.259Z,0
2016-12-02T06:06:25.724Z,0
2016-12-02T06:07:06.186Z,0
2016-12-02T06:07:46.678Z,0
2016-12-02T06:08:27.191Z,0
2016-12-02T06:09:07.665Z,0
2016-12-02T06:09:48.126Z,0
2016-12-02T06:10:28.603Z,0
2016-12-02T06:11:09.132Z,0
2016-12-02T06:11:49.651Z,0
2016-12-02T06:12:30.142Z,0
2016-12-02T06:13:10.633Z,0
2016-12-02T06:13:51.104Z,0
2016-12-02T06:14:31.609Z,0
2016-12-02T06:15:12.122Z,0
2016-12-02T06:15:52.560Z,0
2016-12-02T06:16:33.062Z,0
2016-12-02T06:17:13.532Z,0
2016-12-02T06:17:54.017Z,0
2016-12-02T06:18:34.519Z,0
2016-12-02T06:19:15.049Z,0
2016-12-02T06:19:55.516Z,0
2016-12-02T06:20:36.007Z,0
2016-12-02T06:21:16.497Z,0
2016-12-02T06:21:56.990Z,0
2016-12-02T06:22:37.439Z,0
2016-12-02T06:23:17.904Z,0
2016-12-02T06:23:58.404Z,0
2016-12-02T06:24:38.864Z,0
2016-12-02T06:25:19.335Z,0
2016-12-02T06:25:59.818Z,0
2016-12-02T06:26:40.343Z,0
2016-12-02T06:27:20.832Z,0
2016-12-02T06:28:01.361Z,0
2016-12-02T06:28:41.877Z,0
2016-12-02T06:29:22.340Z,0
2016-12-02T06:30:02.823Z,0
2016-12-02T06:30:43.321Z,0
2016-12-02T06:31:23.799Z,0
2016-12-02T06:32:04.314Z,0
2016-12-02T06:32:44.762Z,0
2016-12-02T06:33:25.260Z,0
2016-12-02T06:34:05.754Z,0
2016-12-02T06:34:46.241Z,0
2016-12-02T06:35:26.780Z,0
2016-12-02T06:36:07.229Z,0
2016-12-02T06:36:47.763Z,0
2016-12-02T06:37:28.249Z,0
2016-12-02T06:38:08.760Z,0
2016-12-02T06:38:49.182Z,0
2016-12-02T06:39:29.653Z,0
2016-12-02T06:40:10.202Z,0
2016-12-02T06:40:50.668Z,0
2016-12-02T06:41:32.069Z,0
2016-12-02T06:42:12.555Z,4
2016-12-02T06:42:53.033Z,4
2016-12-02T06:43:33.509Z,8
2016-12-02T06:44:14.002Z,4
2016-12-02T06:44:54.511Z,4
2016-12-02T06:45:35.010Z,4
2016-12-02T06:46:15.513Z,8
2016-12-02T06:46:56.008Z,8
2016-12-02T06:47:36.501Z,8
2016-12-02T06:48:17.000Z,4
2016-12-02T06:48:57.483Z,8
2016-12-02T06:49:37.988Z,8
2016-12-02T06:50:18.484Z,8
2016-12-02T06:50:58.957Z,8
2016-12-02T06:51:39.463Z,8
2016-12-02T06:52:19.944Z,8
2016-12-02T06:53:00.446Z,12
2016-12-02T06:53:40.948Z,8
2016-12-02T06:54:21.433Z,12
2016-12-02T06:55:01.945Z,12
2016-12-02T06:55:42.429Z,12
2016-12-02T06:56:22.922Z,16
2016-12-02T06:57:03.421Z,16
2016-12-02T06:57:43.913Z,16
2016-12-02T06:58:24.398Z,20
2016-12-02T06:59:04.893Z,20
2016-12-02T06:59:45.381Z,20
2016-12-02T07:01:59.520Z,28
2016-12-02T07:02:40.007Z,28
2016-12-02T07:03:20.506Z,32
2016-12-02T07:04:01.009Z,36
2016-12-02T07:04:41.494Z,36
2016-12-02T07:05:21.995Z,40
2016-12-02T07:06:02.492Z,44
2016-12-02T07:06:42.979Z,48
2016-12-02T07:09:02.512Z,64
2016-12-02T07:09:43.217Z,72
2016-12-02T07:10:23.710Z,76
2016-12-02T07:11:04.172Z,80
2016-12-02T07:11:44.676Z,88
2016-12-02T07:12:25.156Z,96
2016-12-02T07:13:05.638Z,100
2016-12-02T07:13:46.118Z,108
2016-12-02T07:14:26.599Z,116
2016-12-02T07:15:07.070Z,124
2016-12-02T07:15:47.546Z,128
2016-12-02T07:16:28.012Z,140
2016-12-02T07:17:08.497Z,152
2016-12-02T07:17:48.956Z,160
2016-12-02T07:18:29.429Z,168
2016-12-02T07:19:09.892Z,176
2016-12-02T07:19:50.371Z,188
2016-12-02T07:20:30.846Z,200
2016-12-02T07:21:11.306Z,208
2016-12-02T07:21:51.809Z,224
2016-12-02T07:22:32.315Z,232
2016-12-02T07:23:12.796Z,248
2016-12-02T07:23:53.280Z,260
2016-12-02T07:24:33.746Z,272
2016-12-02T07:25:14.245Z,284
2016-12-02T07:25:54.689Z,300
2016-12-02T07:26:35.157Z,312
2016-12-02T07:27:15.625Z,328
2016-12-02T07:27:56.080Z,344
2016-12-02T07:28:36.550Z,356
2016-12-02T07:29:17.028Z,372
2016-12-02T07:29:57.470Z,388
2016-12-02T07:30:37.979Z,404
2016-12-02T07:31:18.433Z,416
2016-12-02T07:31:58.924Z,432
2016-12-02T07:32:39.401Z,452
2016-12-02T07:33:19.843Z,468
2016-12-02T07:34:00.317Z,484
2016-12-02T07:34:40.778Z,500
2016-12-02T07:35:21.241Z,516
2016-12-02T07:36:01.735Z,532
2016-12-02T07:36:42.233Z,552
2016-12-02T07:37:22.710Z,568
2016-12-02T07:38:03.184Z,584
2016-12-02T07:38:43.664Z,604
2016-12-02T07:39:24.111Z,620
2016-12-02T07:40:04.601Z,640
2016-12-02T07:40:45.090Z,656
2016-12-02T07:41:25.554Z,676
2016-12-02T07:42:06.030Z,696
2016-12-02T07:42:46.487Z,712
2016-12-02T07:43:26.990Z,732
2016-12-02T07:44:07.443Z,748
2016-12-02T07:44:47.956Z,768
2016-12-02T07:45:28.436Z,788
2016-12-02T07:46:08.922Z,804
2016-12-02T07:46:49.389Z,824
2016-12-02T07:47:29.860Z,844
2016-12-02T07:48:10.346Z,860
2016-12-02T07:48:50.842Z,876
2016-12-02T07:49:31.312Z,892
2016-12-02T07:50:11.792Z,912
2016-12-02T07:50:52.272Z,928
2016-12-02T07:51:32.737Z,944
2016-12-02T07:52:13.228Z,960
2016-12-02T07:52:53.674Z,980
2016-12-02T07:53:34.129Z,996
2016-12-02T07:54:14.622Z,1016
2016-12-02T07:54:55.114Z,1028
2016-12-02T07:55:35.590Z,1044
2016-12-02T07:56:16.075Z,1064
2016-12-02T07:56:56.517Z,1084
2016-12-02T07:57:36.971Z,1100
2016-12-02T07:58:17.497Z,1116
2016-12-02T07:58:57.939Z,1128
2016-12-02T07:59:38.420Z,1148
2016-12-02T08:00:18.910Z,1160
2016-12-02T08:00:59.446Z,1180
2016-12-02T08:01:39.935Z,1196
2016-12-02T08:02:20.406Z,1212
2016-12-02T08:03:00.870Z,1228
2016-12-02T08:03:41.318Z,1244
2016-12-02T08:04:26.072Z,1260
2016-12-02T08:05:09.390Z,1276
2016-12-02T08:07:48.660Z,1332
2016-12-02T08:08:29.193Z,1348
2016-12-02T08:09:09.678Z,1364
2016-12-02T08:09:50.166Z,1376
2016-12-02T08:10:30.663Z,1392
2016-12-02T08:11:11.151Z,1404
2016-12-02T08:11:57.548Z,1420
2016-12-02T08:12:41.807Z,1440
2016-12-02T08:13:23.812Z,1452
2016-12-02T08:14:04.274Z,1464
2016-12-02T08:14:44.781Z,1480
2016-12-02T08:15:25.274Z,1492
2016-12-02T08:16:05.719Z,1468
2016-12-02T08:16:46.207Z,1480
2016-12-02T08:17:26.700Z,1492
2016-12-02T08:18:07.219Z,1504
2016-12-02T08:18:47.700Z,1516
2016-12-02T08:19:28.223Z,1528
2016-12-02T08:20:08.726Z,1540
2016-12-02T08:20:49.204Z,1556
2016-12-02T08:21:29.697Z,1568
2016-12-02T08:22:13.674Z,1580
2016-12-02T08:22:54.171Z,1592
2016-12-02T08:23:34.677Z,1600
2016-12-02T08:24:15.188Z,1616
2016-12-02T08:24:55.682Z,1628
2016-12-02T08:25:36.183Z,1640
2016-12-02T08:26:16.674Z,1652
2016-12-02T08:26:57.242Z,1660
2016-12-02T08:27:38.453Z,1676
2016-12-02T08:28:19.808Z,1684
2016-12-02T08:29:00.304Z,1696
2016-12-02T08:29:40.804Z,1704
2016-12-02T08:30:21.301Z,1716
2016-12-02T08:31:01.806Z,1728
2016-12-02T08:31:42.302Z,1736
2016-12-02T08:32:22.819Z,1752
2016-12-02T08:33:03.301Z,1756
2016-12-02T08:33:43.796Z,1768
2016-12-02T08:34:24.310Z,1780
2016-12-02T08:35:04.795Z,1792
2016-12-02T08:35:51.673Z,1804
2016-12-02T08:36:34.926Z,1816
2016-12-02T08:37:15.455Z,1824
2016-12-02T08:37:55.951Z,1884
2016-12-02T08:38:36.433Z,1892
2016-12-02T08:39:16.944Z,1900
2016-12-02T08:39:57.415Z,1912
2016-12-02T08:40:37.928Z,1920
2016-12-02T08:41:18.896Z,1928
2016-12-02T08:41:59.370Z,1936
2016-12-02T08:42:40.661Z,1948
2016-12-02T08:43:21.147Z,1960
2016-12-02T08:44:01.601Z,1968
2016-12-02T08:44:42.078Z,1972
2016-12-02T08:45:22.564Z,1984
2016-12-02T08:46:03.029Z,1988
2016-12-02T08:46:43.510Z,2000
2016-12-02T08:47:23.996Z,2004
2016-12-02T08:48:04.495Z,2012
2016-12-02T08:48:44.981Z,2028
2016-12-02T08:49:25.500Z,2032
2016-12-02T08:50:05.999Z,2040
2016-12-02T08:50:46.454Z,2048
2016-12-02T08:51:26.963Z,2052
2016-12-02T08:52:07.419Z,2060
2016-12-02T08:52:47.913Z,2068
2016-12-02T08:53:28.433Z,2076
2016-12-02T08:54:08.882Z,2084
2016-12-02T08:54:49.386Z,2092
2016-12-02T08:55:29.878Z,2096
2016-12-02T08:56:10.353Z,2108
2016-12-02T08:56:50.816Z,2112
2016-12-02T08:57:31.311Z,2120
2016-12-02T08:58:11.784Z,2128
2016-12-02T08:58:53.010Z,2132
2016-12-02T08:59:33.475Z,2140
2016-12-02T09:00:13.956Z,2148
2016-12-02T09:00:54.420Z,2152
2016-12-02T09:01:34.908Z,2160
2016-12-02T09:02:15.395Z,2164
2016-12-02T09:02:55.875Z,2168
2016-12-02T09:03:36.353Z,2176
2016-12-02T09:04:16.852Z,2184
2016-12-02T09:04:57.354Z,2188
2016-12-02T09:05:37.845Z,2192
2016-12-02T09:06:18.317Z,2204
2016-12-02T09:06:59.482Z,2208
2016-12-02T09:07:39.992Z,2216
2016-12-02T09:08:20.459Z,2220
2016-12-02T09:09:00.931Z,2228
2016-12-02T09:09:41.421Z,2228
2016-12-02T09:10:21.874Z,2232
2016-12-02T09:11:02.399Z,2244
2016-12-02T09:11:42.913Z,2248
2016-12-02T09:12:23.417Z,2252
2016-12-02T09:13:03.890Z,2256
2016-12-02T09:13:44.427Z,2264
2016-12-02T09:14:24.910Z,2268
2016-12-02T09:15:05.398Z,2280
2016-12-02T09:15:46.875Z,2284
2016-12-02T09:16:27.394Z,2288
2016-12-02T09:17:07.885Z,2296
2016-12-02T09:17:48.506Z,2296
2016-12-02T09:18:29.294Z,2304
2016-12-02T09:19:10.229Z,2308
2016-12-02T09:19:50.723Z,2312
2016-12-02T09:20:31.218Z,2316
2016-12-02T09:21:11.719Z,2324
2016-12-02T09:21:52.208Z,2328
2016-12-02T09:22:32.688Z,2332
2016-12-02T09:23:13.167Z,2336
2016-12-02T09:23:53.662Z,2340
2016-12-02T09:24:34.202Z,2344
2016-12-02T09:25:14.669Z,2348
2016-12-02T09:25:55.112Z,2352
2016-12-02T09:26:35.603Z,2356
2016-12-02T09:27:16.158Z,2360
2016-12-02T09:27:56.623Z,2364
2016-12-02T09:28:37.117Z,2368
2016-12-02T09:29:17.659Z,2368
2016-12-02T09:29:58.962Z,2372
2016-12-02T09:30:39.485Z,2376
2016-12-02T09:31:22.131Z,2384
2016-12-02T09:32:04.499Z,2388
2016-12-02T09:32:46.542Z,2392
2016-12-02T09:33:28.289Z,2396
2016-12-02T09:34:08.773Z,2400
2016-12-02T09:34:49.342Z,2404
2016-12-02T09:35:29.806Z,2408
2016-12-02T09:36:10.376Z,2408
2016-12-02T09:36:50.908Z,2412
2016-12-02T09:37:31.445Z,2412
2016-12-02T09:38:11.884Z,2416
2016-12-02T09:38:52.490Z,2420
2016-12-02T09:39:33.024Z,2424
2016-12-02T09:40:14.267Z,2424
2016-12-02T09:40:54.782Z,2428
2016-12-02T09:41:35.385Z,2424
2016-12-02T09:42:16.928Z,2428
2016-12-02T09:43:00.539Z,2432
2016-12-02T09:43:42.545Z,2436
2016-12-02T09:44:25.521Z,2436
2016-12-02T09:46:52.646Z,2448
2016-12-02T09:47:40.261Z,2452
2016-12-02T09:49:45.786Z,2460
2016-12-02T09:50:34.698Z,2464
2016-12-02T09:51:20.962Z,2464
2016-12-02T09:53:46.417Z,2472
2016-12-02T09:54:33.301Z,2476
2016-12-02T09:55:21.648Z,2476
2016-12-02T09:56:10.197Z,2476
2016-12-02T09:56:58.796Z,2480
2016-12-02T09:57:47.335Z,2484
2016-12-02T09:58:29.427Z,2484
2016-12-02T09:59:09.884Z,2488
2016-12-02T09:59:50.343Z,2484
2016-12-02T10:00:30.802Z,2488
2016-12-02T10:01:11.267Z,2492
2016-12-02T10:01:51.781Z,2488
2016-12-02T10:02:32.238Z,2492
2016-12-02T10:03:13.640Z,2496
2016-12-02T10:03:55.263Z,2496
2016-12-02T10:04:41.995Z,2496
2016-12-02T10:05:22.918Z,2496
2016-12-02T10:06:09.289Z,2504
2016-12-02T10:06:50.668Z,2504
2016-12-02T10:07:31.073Z,2508
2016-12-02T10:08:16.876Z,2508
2016-12-02T10:08:57.442Z,2508
2016-12-02T10:09:38.052Z,2512
2016-12-02T10:10:18.655Z,2512
2016-12-02T10:10:59.161Z,2512